Time;durP1;ratioP1;P1;durP2;ratioP2;P2;SDS_P1;SDS_P2;PMS_P1;PMS_P2;Temp;Humidity;BMP_temperature;BMP_pressure;BME280_temperature;BME280_humidity;BME280_pressure;Samples;Min_cycle;Max_cycle;Signal;HPM_P1;HPM_P2
2024/01/14 00:20:23;;;;;;;20.80;13.67;;;1.20;99.90;;;;;;4687953;30;20366;-84
2024/01/14 02:31:17;;;;;;;18.17;12.47;;;1.80;99.90;;;;;;5989081;23;20445;-82
2024/01/14 03:06:47;;;;;;;15.33;10.90;;;1.90;99.90;;;;;;5949857;23;20622;-84
2024/01/14 03:27:46;;;;;;;13.53;10.33;;;2.00;99.90;;;;;;5766100;24;20601;-85
2024/01/14 04:07:49;;;;;;;11.60;8.87;;;2.20;99.90;;;;;;5671428;24;20788;-82
2024/01/14 04:28:25;;;;;;;11.07;9.13;;;2.20;99.90;;;;;;5542318;25;20201;-82
2024/01/14 04:58:45;;;;;;;11.83;8.30;;;2.10;99.90;;;;;;5652791;24;20212;-87
2024/01/14 05:19:18;;;;;;;7.83;6.37;;;2.20;99.90;;;;;;5675238;24;20364;-81
2024/01/14 05:54:50;;;;;;;12.67;8.97;;;2.00;99.90;;;;;;5747975;24;20206;-82
2024/01/14 06:24:36;;;;;;;14.57;9.27;;;1.80;99.90;;;;;;5762884;24;20587;-85
2024/01/14 06:45:31;;;;;;;10.53;8.63;;;2.00;99.90;;;;;;5838607;23;20178;-91
2024/01/14 06:55:27;;;;;;;11.10;7.73;;;2.00;99.90;;;;;;6135568;23;20202;-88
2024/01/14 07:20:24;;;;;;;11.10;8.00;;;2.10;99.90;;;;;;5886417;23;20541;-83
2024/01/14 07:40:58;;;;;;;12.87;8.33;;;2.00;99.90;;;;;;5801267;24;20557;-87
2024/01/14 08:06:29;;;;;;;13.80;8.87;;;2.00;99.90;;;;;;5679194;24;20170;-84
2024/01/14 08:36:51;;;;;;;11.60;8.03;;;1.90;99.90;;;;;;5834936;24;20183;-84
2024/01/14 09:01:58;;;;;;;13.70;8.27;;;2.00;99.90;;;;;;5877318;23;20536;-88
2024/01/14 09:22:35;;;;;;;13.53;8.97;;;2.00;99.90;;;;;;5902985;23;20255;-81
2024/01/14 09:58:13;;;;;;;9.97;6.50;;;1.90;99.90;;;;;;5805564;24;20539;-83
2024/01/14 10:28:25;;;;;;;11.13;7.40;;;2.30;99.90;;;;;;5846841;24;20351;-85
2024/01/14 10:58:25;;;;;;;10.10;7.97;;;1.80;99.90;;;;;;5971407;23;20610;-84
2024/01/14 11:19:11;;;;;;;11.90;8.70;;;1.90;99.90;;;;;;5746448;24;20178;-82
2024/01/14 11:23:43;;;;;;;11.70;9.27;;;1.90;99.90;;;;;;5684039;24;20294;-87
2024/01/14 11:49:05;;;;;;;14.60;9.70;;;1.90;99.90;;;;;;5745488;24;20377;-88
2024/01/14 12:14:55;;;;;;;13.60;8.97;;;1.90;99.90;;;;;;5963688;23;20168;-84
2024/01/14 12:40:32;;;;;;;13.60;9.10;;;1.80;99.90;;;;;;5887229;23;20178;-83
2024/01/14 13:46:20;;;;;;;13.33;8.50;;;2.10;99.90;;;;;;5577478;25;20205;-83
2024/01/14 14:26:58;;;;;;;14.47;9.60;;;2.00;99.90;;;;;;6010062;23;20242;-81
2024/01/14 14:52:09;;;;;;;12.20;7.83;;;2.00;99.90;;;;;;5822740;24;20631;-83
2024/01/14 15:12:35;;;;;;;11.33;7.97;;;2.10;99.90;;;;;;5753044;24;20195;-81
2024/01/14 15:42:38;;;;;;;13.37;7.40;;;2.20;99.90;;;;;;5649838;24;20599;-84
2024/01/14 16:54:04;;;;;;;13.97;6.77;;;2.10;99.90;;;;;;5801271;24;20168;-85
2024/01/14 17:19:18;;;;;;;9.93;6.30;;;2.20;99.90;;;;;;5585639;25;20704;-83
2024/01/14 17:49:42;;;;;;;9.73;6.63;;;2.20;99.90;;;;;;5773192;24;20171;-86
2024/01/14 18:09:55;;;;;;;8.20;6.77;;;2.30;99.90;;;;;;5763338;24;21118;-82
2024/01/14 18:35:38;;;;;;;10.40;6.27;;;2.30;99.90;;;;;;5793414;24;20664;-85
2024/01/14 19:06:06;;;;;;;9.43;6.63;;;2.30;99.90;;;;;;5821805;24;20196;-85
2024/01/14 19:36:31;;;;;;;11.23;7.30;;;2.20;99.90;;;;;;6017299;23;20231;-86
2024/01/14 20:07:03;;;;;;;12.70;8.97;;;2.20;99.90;;;;;;6009324;23;20215;-84
2024/01/14 20:11:24;;;;;;;13.27;9.03;;;2.30;99.90;;;;;;5907895;23;20581;-86
2024/01/14 20:46:54;;;;;;;17.97;10.27;;;2.10;99.90;;;;;;5902465;23;20560;-84
2024/01/14 21:07:56;;;;;;;16.77;11.47;;;2.10;99.90;;;;;;5978814;23;20194;-83
2024/01/14 21:12:16;;;;;;;15.77;11.20;;;2.00;99.90;;;;;;5863402;24;20247;-84
2024/01/14 21:37:58;;;;;;;14.23;11.27;;;1.90;99.90;;;;;;5996215;23;20239;-82
2024/01/14 21:58:38;;;;;;;14.07;10.17;;;1.90;99.90;;;;;;6121448;23;20185;-86
2024/01/14 22:28:40;;;;;;;15.20;10.80;;;1.90;99.90;;;;;;6014877;23;20546;-85
2024/01/14 22:54:20;;;;;;;14.53;9.73;;;1.80;99.90;;;;;;5858615;24;20591;-84
2024/01/14 23:29:50;;;;;;;13.10;8.30;;;1.60;99.90;;;;;;5961153;23;20211;-83
